Hastings, Nebraska
Current Conditions -  °F | °C
As of 6:53 PM on Sunday 23 Nov 2014 (Local Time) from KHSI Reporting Station
Clear Clear  
Wind Chill: -1°   Ceiling: Unl
Heat Index:   Visibility: 10mi
Dew Point: -3°   Wind: 14mph
Humidity: 62%   Direction: 330°NNW
Pressure: 29.63"   Gusts: NA
Location:  40.59°N, 98.39°W
Report Text: KHSI 240053Z AUTO 33012KT 10SM CLR 03/M03 A2963 RMK AO2 SLP043 T00331033
Loading
Personal Weather Stations






























Interactive Weather Map New forecast layout! Learn more

10-Day Weather Forecast

Advertisements
Track Severe Weather on mobile